Terminal Aerodrome Forecast
Issued by NWS Pocatello, ID

Home | Current Version | Previous Version | Text Only | Print | Product List | Glossary On
Versions: 1 2 3 4 5 6 7 8 9 10 11 12
000
FTUS45 KPIH 022320
TAFBYI
TAF
KBYI 022320Z 0300/0324 VRB06KT P6SM SCT120
     FM031300 23009KT P6SM SCT120
     FM031700 29010G20KT P6SM BKN120=

USA.gov is the U.S. government's official web portal to all federal, state and local government web resources and services.